createdAt,value
2022-12-05T00:07:27.768Z,4.45
2022-12-05T00:17:27.794Z,4.41
2022-12-05T00:27:27.793Z,4.38
2022-12-05T00:37:27.837Z,4.36
2022-12-05T00:47:27.833Z,4.35
2022-12-05T00:57:27.788Z,4.34
2022-12-05T01:07:27.840Z,4.34
2022-12-05T01:17:27.869Z,4.33
2022-12-05T01:27:28.293Z,4.31
2022-12-05T01:37:28.955Z,4.29
2022-12-05T01:47:28.964Z,4.28
2022-12-05T01:57:28.881Z,4.28
2022-12-05T02:07:28.967Z,4.29
2022-12-05T02:17:28.993Z,4.32
2022-12-05T02:27:28.924Z,4.36
2022-12-05T02:37:28.940Z,4.40
2022-12-05T02:47:29.005Z,4.43
2022-12-05T02:57:28.962Z,4.46
2022-12-05T03:07:29.045Z,4.47
2022-12-05T03:17:29.123Z,4.46
2022-12-05T03:27:29.028Z,4.41
2022-12-05T03:37:29.055Z,4.28
2022-12-05T03:47:29.109Z,4.13
2022-12-05T03:57:29.038Z,4.07
2022-12-05T04:07:29.122Z,4.03
2022-12-05T04:17:29.097Z,3.97
2022-12-05T04:27:29.072Z,3.94
2022-12-05T04:37:29.069Z,3.91
2022-12-05T04:47:29.126Z,3.88
2022-12-05T04:57:29.112Z,3.83
2022-12-05T05:07:32.280Z,3.76
2022-12-05T05:17:32.182Z,3.71
2022-12-05T05:27:32.155Z,3.70
2022-12-05T05:37:32.146Z,3.68
2022-12-05T05:47:32.187Z,3.66
2022-12-05T05:57:32.138Z,3.70
2022-12-05T06:07:32.289Z,3.78
2022-12-05T06:17:32.313Z,3.85
2022-12-05T06:27:32.209Z,3.85
2022-12-05T06:37:32.208Z,3.83
2022-12-05T06:47:32.216Z,3.82
2022-12-05T06:57:32.300Z,3.82
2022-12-05T07:07:32.316Z,3.78
2022-12-05T07:17:32.257Z,3.73
2022-12-05T07:27:32.258Z,3.67
2022-12-05T07:37:32.297Z,3.61
2022-12-05T07:47:32.338Z,3.59
2022-12-05T07:57:32.371Z,3.61
2022-12-05T08:07:32.363Z,3.66
2022-12-05T08:17:33.098Z,3.70
2022-12-05T08:27:33.364Z,3.73
2022-12-05T08:37:33.348Z,3.78
2022-12-05T08:47:33.375Z,3.91
2022-12-05T08:57:33.447Z,4.09
2022-12-05T09:07:33.451Z,4.24
2022-12-05T09:17:33.379Z,4.39
2022-12-05T09:27:33.437Z,4.59
2022-12-05T09:37:40.648Z,4.77
2022-12-05T09:47:35.693Z,4.94
2022-12-05T09:57:35.505Z,5.10
2022-12-05T10:07:35.501Z,5.21
2022-12-05T10:17:35.459Z,5.30
2022-12-05T10:27:40.095Z,5.39
2022-12-05T10:37:37.443Z,5.46
2022-12-05T10:47:37.660Z,5.46
2022-12-05T10:57:37.520Z,5.38
2022-12-05T11:07:37.568Z,5.42
2022-12-05T11:17:37.552Z,5.51
2022-12-05T11:27:38.167Z,5.55
2022-12-05T11:37:38.840Z,5.58
2022-12-05T11:47:38.582Z,5.66
2022-12-05T11:57:38.594Z,5.87
2022-12-05T12:07:38.629Z,6.17
2022-12-05T12:17:38.570Z,6.42
2022-12-05T12:27:38.672Z,6.57
2022-12-05T12:37:38.656Z,6.51
2022-12-05T12:47:39.500Z,6.32
2022-12-05T12:57:39.666Z,6.14
2022-12-05T13:07:39.654Z,5.94
2022-12-05T13:17:39.847Z,5.75
2022-12-05T13:27:39.686Z,5.62
2022-12-05T13:37:58.039Z,5.48
2022-12-05T13:47:58.578Z,5.31
2022-12-05T13:57:58.729Z,5.12
2022-12-05T14:08:03.654Z,4.91
2022-12-05T14:18:00.722Z,4.73
2022-12-05T14:28:00.769Z,4.58
2022-12-05T14:38:00.738Z,4.45
2022-12-05T14:48:00.769Z,4.30
2022-12-05T14:58:00.826Z,4.17
2022-12-05T15:08:01.163Z,4.05
2022-12-05T15:18:04.025Z,3.94
2022-12-05T15:28:03.801Z,3.84
2022-12-05T15:38:08.737Z,3.70
2022-12-05T15:48:08.821Z,3.51
2022-12-05T15:58:13.090Z,3.33
2022-12-05T16:08:11.214Z,3.20
2022-12-05T16:18:10.825Z,3.09
2022-12-05T16:28:11.247Z,3.01
2022-12-05T16:38:10.914Z,2.95
2022-12-05T16:48:10.912Z,2.89
2022-12-05T16:58:10.985Z,2.82
2022-12-05T17:08:10.999Z,2.76
2022-12-05T17:18:11.374Z,2.73
2022-12-05T17:28:11.982Z,2.73
2022-12-05T17:38:12.190Z,2.75
2022-12-05T17:48:11.955Z,2.74
2022-12-05T17:58:15.747Z,2.75
2022-12-05T18:08:28.650Z,2.78
2022-12-05T18:18:29.663Z,2.84
2022-12-05T18:28:30.037Z,2.90
2022-12-05T18:38:30.009Z,2.93
2022-12-05T18:48:47.803Z,2.94
2022-12-05T18:58:32.036Z,2.92
2022-12-05T19:08:32.057Z,2.90
2022-12-05T19:18:32.083Z,2.90
2022-12-05T19:28:32.064Z,2.93
2022-12-05T19:38:32.591Z,2.92
2022-12-05T19:48:33.256Z,2.89
2022-12-05T19:58:33.086Z,2.88
2022-12-05T20:08:33.185Z,2.89
2022-12-05T20:18:33.132Z,2.91
2022-12-05T20:28:33.130Z,2.95
2022-12-05T20:38:33.267Z,3.00
2022-12-05T20:48:33.191Z,3.04
2022-12-05T20:58:33.295Z,3.06
2022-12-05T21:08:33.298Z,3.06
2022-12-05T21:18:33.179Z,3.06
2022-12-05T21:28:33.210Z,3.09
2022-12-05T21:38:33.310Z,3.13
2022-12-05T21:48:33.257Z,3.15
2022-12-05T21:58:35.061Z,3.15
2022-12-05T22:08:35.305Z,3.16
2022-12-05T22:18:35.282Z,3.15
2022-12-05T22:28:35.457Z,3.16
2022-12-05T22:38:36.065Z,3.19
2022-12-05T22:48:36.301Z,3.22
2022-12-05T22:58:36.410Z,3.24
2022-12-05T23:08:36.656Z,3.25
2022-12-05T23:18:39.015Z,3.28
2022-12-05T23:28:39.358Z,3.32
2022-12-05T23:38:39.438Z,3.32
2022-12-05T23:48:39.432Z,3.33
2022-12-05T23:58:39.517Z,3.36
